Aviation Digital Data Service (ADDS)

Output produced by METARs form (0649 UTC 24 March 2019)
found at http://www.aviationweather.gov/metar/data/
 
FVMV 240400Z 00000KT 9999 FEW030 16/15 Q1021